createdAt,value
2019-04-27T00:02:01.521Z,33.87
2019-04-27T00:04:43.540Z,40.37
2019-04-27T00:07:33.732Z,42.97
2019-04-27T00:10:24.388Z,33.00
2019-04-27T00:12:57.289Z,36.57
2019-04-27T00:15:38.804Z,29.80
2019-04-27T00:18:23.562Z,28.23
2019-04-27T00:21:03.618Z,28.23
2019-04-27T00:23:35.538Z,28.90
2019-04-27T00:26:07.264Z,30.27
2019-04-27T00:28:38.988Z,25.23
2019-04-27T00:31:10.681Z,26.50
2019-04-27T00:33:43.491Z,20.60
2019-04-27T00:36:28.177Z,25.00
2019-04-27T00:39:23.093Z,24.97
2019-04-27T00:41:55.077Z,27.43
2019-04-27T00:44:26.804Z,23.57
2019-04-27T00:46:58.516Z,27.77
2019-04-27T00:49:30.349Z,26.27
2019-04-27T00:52:03.643Z,28.03
2019-04-27T00:54:35.592Z,29.53
2019-04-27T00:57:14.834Z,27.27
2019-04-27T01:00:18.428Z,27.60
2019-04-27T01:02:56.344Z,28.43
2019-04-27T01:05:28.924Z,32.03
2019-04-27T01:08:00.649Z,25.30
2019-04-27T01:10:33.488Z,28.23
2019-04-27T01:13:05.422Z,27.73
2019-04-27T01:15:37.156Z,28.23
2019-04-27T01:18:14.477Z,27.03
2019-04-27T01:20:42.614Z,21.00
2019-04-27T01:23:14.625Z,22.57
2019-04-27T01:26:00.362Z,24.83
2019-04-27T01:28:38.817Z,20.90
2019-04-27T01:31:11.901Z,23.77
2019-04-27T01:33:43.704Z,24.27
2019-04-27T01:36:15.476Z,19.93
2019-04-27T01:38:47.176Z,22.13
2019-04-27T01:41:19.299Z,21.50
2019-04-27T01:43:51.115Z,18.00
2019-04-27T01:46:22.951Z,20.07
2019-04-27T01:48:54.685Z,30.67
2019-04-27T01:51:26.512Z,19.83
2019-04-27T01:53:59.398Z,17.67
2019-04-27T01:56:31.344Z,22.40
2019-04-27T01:59:03.356Z,27.50
2019-04-27T02:01:53.741Z,23.53
2019-04-27T02:04:39.768Z,28.50
2019-04-27T02:07:11.602Z,26.33
2019-04-27T02:09:43.418Z,27.93
2019-04-27T02:12:15.167Z,28.03
2019-04-27T02:14:46.969Z,31.43
2019-04-27T02:17:18.829Z,29.47
2019-04-27T02:19:50.698Z,29.43
2019-04-27T02:22:22.666Z,33.83
2019-04-27T02:24:54.571Z,35.17
2019-04-27T02:27:28.709Z,28.10
2019-04-27T02:30:20.699Z,37.07
2019-04-27T02:33:15.177Z,35.20
2019-04-27T02:35:50.243Z,32.30
2019-04-27T02:38:20.829Z,34.77
2019-04-27T02:40:59.812Z,36.40
2019-04-27T02:43:55.081Z,32.63
2019-04-27T02:46:31.041Z,38.57
2019-04-27T02:49:06.310Z,42.73
2019-04-27T02:51:59.287Z,36.83
2019-04-27T02:54:30.606Z,39.20
2019-04-27T02:57:02.424Z,38.60
2019-04-27T02:59:34.146Z,46.97
2019-04-27T03:02:34.633Z,42.43
2019-04-27T03:05:07.455Z,41.23
2019-04-27T03:07:39.849Z,41.90
2019-04-27T03:10:13.079Z,41.57
2019-04-27T03:12:50.143Z,42.63
2019-04-27T03:15:30.577Z,45.20
2019-04-27T03:18:09.913Z,47.20
2019-04-27T03:20:50.182Z,49.37
2019-04-27T03:23:21.514Z,45.67
2019-04-27T03:26:31.136Z,43.17
2019-04-27T03:29:03.271Z,41.97
2019-04-27T03:31:34.985Z,50.37
2019-04-27T03:34:11.872Z,50.70
2019-04-27T03:36:40.713Z,54.93
2019-04-27T03:39:12.535Z,57.50
2019-04-27T03:41:44.414Z,50.97
2019-04-27T03:44:16.321Z,52.60
2019-04-27T03:46:49.648Z,54.97
2019-04-27T03:49:34.624Z,60.63
2019-04-27T03:52:03.071Z,61.90
2019-04-27T03:54:41.355Z,59.37
2019-04-27T03:57:25.692Z,52.83
2019-04-27T03:59:59.648Z,64.73
2019-04-27T04:02:31.732Z,61.33
2019-04-27T04:05:04.633Z,70.27
2019-04-27T04:07:36.970Z,75.57
2019-04-27T04:10:10.824Z,69.07
2019-04-27T04:13:06.246Z,79.20
2019-04-27T04:15:45.757Z,75.20
2019-04-27T04:18:19.682Z,72.83
2019-04-27T04:20:51.413Z,75.97
2019-04-27T04:23:23.139Z,78.23
2019-04-27T04:25:54.873Z,78.83
2019-04-27T04:28:26.679Z,77.80
2019-04-27T04:31:00.479Z,80.37
2019-04-27T04:33:32.017Z,80.20
2019-04-27T04:36:03.745Z,71.53
2019-04-27T04:38:35.671Z,71.83
2019-04-27T04:41:10.505Z,65.93
2019-04-27T04:43:51.573Z,66.40
2019-04-27T04:46:42.492Z,64.33
2019-04-27T04:49:14.294Z,66.93
2019-04-27T04:51:46.229Z,71.37
2019-04-27T04:54:20.237Z,70.53
2019-04-27T04:56:51.673Z,60.23
2019-04-27T04:59:23.598Z,61.23
2019-04-27T05:01:55.453Z,70.70
2019-04-27T05:04:29.053Z,63.00
2019-04-27T05:07:00.886Z,62.37
2019-04-27T05:09:32.616Z,69.17
2019-04-27T05:12:04.362Z,60.70
2019-04-27T05:14:36.064Z,65.83
2019-04-27T05:17:09.337Z,61.57
2019-04-27T05:19:41.305Z,53.33
2019-04-27T05:22:13.025Z,62.40
2019-04-27T05:24:46.661Z,59.33
2019-04-27T05:27:19.124Z,60.60
2019-04-27T05:29:50.976Z,57.20
2019-04-27T05:32:22.709Z,54.67
2019-04-27T05:34:54.421Z,65.50
2019-04-27T05:37:28.382Z,60.37
2019-04-27T05:39:59.753Z,52.67
2019-04-27T05:42:31.468Z,51.87
2019-04-27T05:45:41.942Z,50.87
2019-04-27T05:48:27.387Z,49.83
2019-04-27T05:50:58.775Z,45.77
2019-04-27T05:53:26.112Z,50.87
2019-04-27T05:55:59.390Z,48.07
2019-04-27T05:58:31.457Z,43.73
2019-04-27T06:01:03.285Z,40.50
2019-04-27T06:03:35.076Z,46.37
2019-04-27T06:06:06.836Z,38.97
2019-04-27T06:08:39.315Z,38.93
2019-04-27T06:11:11.396Z,43.10
2019-04-27T06:13:43.125Z,44.97
2019-04-27T06:16:14.848Z,37.20
2019-04-27T06:18:46.679Z,41.67
2019-04-27T06:21:19.571Z,38.80
2019-04-27T06:23:51.492Z,43.50
2019-04-27T06:26:23.332Z,46.70
2019-04-27T06:28:55.036Z,58.53
2019-04-27T06:31:26.773Z,48.93
2019-04-27T06:33:59.756Z,49.87
2019-04-27T06:36:31.635Z,45.90
2019-04-27T06:39:06.284Z,48.33
2019-04-27T06:41:39.765Z,49.23
2019-04-27T06:44:11.621Z,51.53
2019-04-27T06:46:43.367Z,49.07
2019-04-27T06:49:15.177Z,51.07
2019-04-27T06:51:46.921Z,49.93
2019-04-27T06:54:19.760Z,47.43
2019-04-27T06:56:52.299Z,52.67
2019-04-27T06:59:24.003Z,60.67
2019-04-27T07:01:55.829Z,55.43
2019-04-27T07:04:29.312Z,49.73
2019-04-27T07:07:01.728Z,54.53
2019-04-27T07:09:33.756Z,55.53
2019-04-27T07:12:05.537Z,57.73
2019-04-27T07:14:50.361Z,60.73
2019-04-27T07:17:11.001Z,66.47
2019-04-27T07:19:42.817Z,65.23
2019-04-27T07:22:14.645Z,61.83
2019-04-27T07:24:46.352Z,59.67
2019-04-27T07:27:20.970Z,61.40
2019-04-27T07:29:53.670Z,63.20
2019-04-27T07:32:25.354Z,57.97
2019-04-27T07:34:58.508Z,59.73
2019-04-27T07:37:30.505Z,56.93
2019-04-27T07:40:02.572Z,60.83
2019-04-27T07:42:34.311Z,59.47
2019-04-27T07:45:12.274Z,61.07
2019-04-27T07:47:44.740Z,63.67
2019-04-27T07:50:16.465Z,60.50
2019-04-27T07:52:48.701Z,56.27
2019-04-27T07:55:20.517Z,61.27
2019-04-27T07:57:52.233Z,53.53
2019-04-27T08:00:23.949Z,55.60
2019-04-27T08:02:55.685Z,54.73
2019-04-27T08:05:29.293Z,54.07
2019-04-27T08:08:01.036Z,55.77
2019-04-27T08:10:32.745Z,58.73
2019-04-27T08:13:04.808Z,55.63
2019-04-27T08:15:36.532Z,58.87
2019-04-27T08:18:09.004Z,55.43
2019-04-27T08:20:40.845Z,51.80
2019-04-27T08:23:12.579Z,51.83
2019-04-27T08:25:44.397Z,64.10
2019-04-27T08:28:30.265Z,52.23
2019-04-27T08:31:18.766Z,53.03
2019-04-27T08:33:50.545Z,45.77
2019-04-27T08:36:22.256Z,51.40
2019-04-27T08:38:54.079Z,45.53
2019-04-27T08:41:25.793Z,51.17
2019-04-27T08:43:58.718Z,48.57
2019-04-27T08:46:30.573Z,51.20
2019-04-27T08:49:02.402Z,51.93
2019-04-27T08:51:34.111Z,44.97
2019-04-27T08:54:05.919Z,51.60
2019-04-27T08:56:37.623Z,45.90
2019-04-27T08:59:09.611Z,55.97
2019-04-27T09:01:41.467Z,48.03
2019-04-27T09:04:13.329Z,55.40
2019-04-27T09:06:47.032Z,40.03
2019-04-27T09:09:30.784Z,49.20
2019-04-27T09:12:22.509Z,47.90
2019-04-27T09:15:10.080Z,41.03
2019-04-27T09:17:48.762Z,46.73
2019-04-27T09:20:49.317Z,45.83
2019-04-27T09:23:21.109Z,41.53
2019-04-27T09:25:52.827Z,39.33
2019-04-27T09:28:24.521Z,43.50
2019-04-27T09:30:56.455Z,37.65
2019-04-27T09:33:28.261Z,38.25
2019-04-27T09:35:59.991Z,38.73
2019-04-27T09:38:31.797Z,41.40
2019-04-27T09:41:03.730Z,37.00
2019-04-27T09:43:36.775Z,34.27
2019-04-27T09:46:08.654Z,40.58
2019-04-27T09:48:40.473Z,36.93
2019-04-27T09:51:12.225Z,36.25
2019-04-27T09:53:45.723Z,29.90
2019-04-27T09:56:17.861Z,33.28
2019-04-27T09:58:49.572Z,27.80
2019-04-27T10:01:21.506Z,30.00
2019-04-27T10:03:53.441Z,31.68
2019-04-27T10:06:29.330Z,28.98
2019-04-27T10:08:58.974Z,27.25
2019-04-27T10:11:30.816Z,30.23
2019-04-27T10:14:02.902Z,30.23
2019-04-27T10:16:36.565Z,27.50
2019-04-27T10:19:08.433Z,30.95
2019-04-27T10:21:40.274Z,25.92
2019-04-27T10:24:12.080Z,25.60
2019-04-27T10:26:44.043Z,26.02
2019-04-27T10:29:16.226Z,27.87
2019-04-27T10:31:48.303Z,27.37
2019-04-27T10:34:20.203Z,18.55
2019-04-27T10:36:52.021Z,18.32
2019-04-27T10:39:25.713Z,18.30
2019-04-27T10:41:57.440Z,21.82
2019-04-27T10:44:29.255Z,22.22
2019-04-27T10:47:01.064Z,21.05
2019-04-27T10:49:32.779Z,21.42
2019-04-27T10:52:05.871Z,21.80
2019-04-27T10:54:37.831Z,23.10
2019-04-27T10:57:09.548Z,21.48
2019-04-27T10:59:41.249Z,16.62
2019-04-27T11:02:13.111Z,16.32
2019-04-27T11:05:04.544Z,15.13
2019-04-27T11:07:37.997Z,14.90
2019-04-27T11:10:10.254Z,9.88
2019-04-27T11:12:42.140Z,16.95
2019-04-27T11:15:16.214Z,14.50
2019-04-27T11:17:48.164Z,14.25
2019-04-27T11:20:20.089Z,13.93
2019-04-27T11:22:51.922Z,11.97
2019-04-27T11:25:23.631Z,14.23
2019-04-27T11:27:55.927Z,13.85
2019-04-27T11:30:29.171Z,13.95
2019-04-27T11:33:00.895Z,10.90
2019-04-27T11:35:54.928Z,16.17
2019-04-27T11:38:26.702Z,11.75
2019-04-27T11:40:58.469Z,14.90
2019-04-27T11:43:30.189Z,10.80
2019-04-27T11:46:01.911Z,14.10
2019-04-27T11:48:33.740Z,13.65
2019-04-27T11:51:06.981Z,11.07
2019-04-27T11:53:38.854Z,16.50
2019-04-27T11:56:10.659Z,14.60
2019-04-27T11:58:42.412Z,15.63
2019-04-27T12:01:15.885Z,11.80
2019-04-27T12:03:47.977Z,13.50
2019-04-27T12:06:19.946Z,11.97
2019-04-27T12:08:51.675Z,13.40
2019-04-27T12:11:23.394Z,11.23
2019-04-27T12:13:56.166Z,11.53
2019-04-27T12:16:28.086Z,9.47
2019-04-27T12:19:00.150Z,10.13
2019-04-27T12:21:32.108Z,11.93
2019-04-27T12:24:04.123Z,9.77
2019-04-27T12:26:55.561Z,7.63
2019-04-27T12:29:47.324Z,6.03
2019-04-27T12:32:19.586Z,9.60
2019-04-27T12:34:51.301Z,12.70
2019-04-27T12:37:23.305Z,8.00
2019-04-27T12:39:55.485Z,7.70
2019-04-27T12:42:28.825Z,7.83
2019-04-27T12:45:00.660Z,7.63
2019-04-27T12:47:32.396Z,5.37
2019-04-27T12:50:06.097Z,7.23
2019-04-27T12:52:38.511Z,11.83
2019-04-27T12:55:20.522Z,12.27
2019-04-27T12:58:02.894Z,10.07
2019-04-27T13:00:37.870Z,6.70
2019-04-27T13:03:09.812Z,8.77
2019-04-27T13:05:41.529Z,7.50
2019-04-27T13:08:13.235Z,6.20
2019-04-27T13:10:45.136Z,11.17
2019-04-27T13:13:16.856Z,7.87
2019-04-27T13:15:48.677Z,6.97
2019-04-27T13:18:20.396Z,8.83
2019-04-27T13:20:52.212Z,10.07
2019-04-27T13:23:24.040Z,9.97
2019-04-27T13:25:56.456Z,10.07
2019-04-27T13:28:28.324Z,12.43
2019-04-27T13:31:00.076Z,12.03
2019-04-27T13:33:31.779Z,10.93
2019-04-27T13:36:07.275Z,14.27
2019-04-27T13:38:37.426Z,10.23
2019-04-27T13:41:10.277Z,14.30
2019-04-27T13:43:42.081Z,11.50
2019-04-27T13:46:46.039Z,10.90
2019-04-27T13:49:37.563Z,12.00
2019-04-27T13:52:11.582Z,16.67
2019-04-27T13:54:43.294Z,11.03
2019-04-27T13:57:18.116Z,11.85
2019-04-27T13:59:48.637Z,7.15
2019-04-27T14:02:23.481Z,7.35
2019-04-27T14:04:53.997Z,14.93
2019-04-27T14:07:26.706Z,9.48
2019-04-27T14:10:00.043Z,7.53
2019-04-27T14:12:31.873Z,8.63
2019-04-27T14:15:04.044Z,10.65
2019-04-27T14:17:35.741Z,11.63
2019-04-27T14:20:07.865Z,9.17
2019-04-27T14:22:41.276Z,10.70
2019-04-27T14:25:12.994Z,7.77
2019-04-27T14:27:44.702Z,7.37
2019-04-27T14:30:16.931Z,5.87
2019-04-27T14:32:48.727Z,5.53
2019-04-27T14:35:20.506Z,9.83
2019-04-27T14:37:52.221Z,5.57
2019-04-27T14:40:23.992Z,6.13
2019-04-27T14:42:55.823Z,6.07
2019-04-27T14:45:28.616Z,8.40
2019-04-27T14:48:00.478Z,8.17
2019-04-27T14:50:32.221Z,4.43
2019-04-27T14:53:03.998Z,5.50
2019-04-27T14:55:35.767Z,17.10
2019-04-27T14:58:08.744Z,5.33
2019-04-27T15:00:40.632Z,9.07
2019-04-27T15:03:12.345Z,6.97
2019-04-27T15:05:44.467Z,11.47
2019-04-27T15:08:16.168Z,9.63
2019-04-27T15:10:48.032Z,6.57
2019-04-27T15:13:19.857Z,7.47
2019-04-27T15:15:51.564Z,8.17
2019-04-27T15:18:26.455Z,7.63
2019-04-27T15:20:58.543Z,5.33
2019-04-27T15:23:31.975Z,5.10
2019-04-27T15:26:03.752Z,7.77
2019-04-27T15:28:37.382Z,6.77
2019-04-27T15:31:38.782Z,5.03
2019-04-27T15:34:29.505Z,5.13
2019-04-27T15:37:23.812Z,7.33
2019-04-27T15:40:20.838Z,5.97
2019-04-27T15:42:58.162Z,7.37
2019-04-27T15:45:29.968Z,6.57
2019-04-27T15:48:01.900Z,5.30
2019-04-27T15:50:33.609Z,6.87
2019-04-27T15:53:09.648Z,8.33
2019-04-27T15:55:39.603Z,5.93
2019-04-27T15:58:11.560Z,6.80
2019-04-27T16:00:43.292Z,5.77
2019-04-27T16:03:15.249Z,4.50
2019-04-27T16:05:47.009Z,5.90
2019-04-27T16:08:18.869Z,8.73
2019-04-27T16:10:50.638Z,5.70
2019-04-27T16:13:22.420Z,5.07
2019-04-27T16:15:55.237Z,3.57
2019-04-27T16:18:31.056Z,4.83
2019-04-27T16:21:02.909Z,4.10
2019-04-27T16:23:40.306Z,4.30
2019-04-27T16:26:11.304Z,5.90
2019-04-27T16:28:43.052Z,8.20
2019-04-27T16:31:15.417Z,8.20
2019-04-27T16:33:47.946Z,9.80
2019-04-27T16:36:20.772Z,6.47
2019-04-27T16:38:59.325Z,6.53
2019-04-27T16:41:32.938Z,6.27
2019-04-27T16:44:06.764Z,6.53
2019-04-27T16:46:39.477Z,4.73
2019-04-27T16:49:13.974Z,6.70
2019-04-27T16:51:45.910Z,6.67
2019-04-27T16:54:21.197Z,7.93
2019-04-27T16:56:58.269Z,4.60
2019-04-27T16:59:42.662Z,4.23
2019-04-27T17:01:58.835Z,2.07
2019-04-27T17:04:31.445Z,4.70
2019-04-27T17:07:03.606Z,3.77
2019-04-27T17:09:36.204Z,4.40
2019-04-27T17:12:09.199Z,2.00
2019-04-27T17:15:05.882Z,4.53
2019-04-27T17:17:51.681Z,4.27
2019-04-27T17:20:23.501Z,3.13
2019-04-27T17:22:55.217Z,10.03
2019-04-27T17:25:27.655Z,4.07
2019-04-27T17:28:05.568Z,3.47
2019-04-27T17:30:41.527Z,4.37
2019-04-27T17:33:29.682Z,4.37
2019-04-27T17:36:02.971Z,2.30
2019-04-27T17:38:35.020Z,5.10
2019-04-27T17:41:12.504Z,2.17
2019-04-27T17:43:42.869Z,7.30
2019-04-27T17:46:14.681Z,3.87
2019-04-27T17:48:48.360Z,2.50
2019-04-27T17:51:20.117Z,4.67
2019-04-27T17:53:51.938Z,4.20
2019-04-27T17:56:33.297Z,3.10
2019-04-27T17:58:58.634Z,6.37
2019-04-27T18:01:32.784Z,5.30
2019-04-27T18:04:06.518Z,3.13
2019-04-27T18:06:39.055Z,2.93
2019-04-27T18:09:18.607Z,4.03
2019-04-27T18:11:50.567Z,6.40
2019-04-27T18:14:22.368Z,5.63
2019-04-27T18:16:54.199Z,3.87
2019-04-27T18:19:48.457Z,2.83
2019-04-27T18:22:20.215Z,2.63
2019-04-27T18:25:03.306Z,1.80
2019-04-27T18:27:50.192Z,2.33
2019-04-27T18:30:42.173Z,3.93
2019-04-27T18:33:14.060Z,14.50
2019-04-27T18:35:45.899Z,8.87
2019-04-27T18:38:17.917Z,3.40
2019-04-27T18:40:49.671Z,2.67
2019-04-27T18:43:21.558Z,14.10
2019-04-27T18:45:53.310Z,6.83
2019-04-27T18:48:50.165Z,1.83
2019-04-27T18:51:29.298Z,7.33
2019-04-27T18:54:03.620Z,7.50
2019-04-27T18:56:38.491Z,8.83
2019-04-27T18:59:08.556Z,4.53
2019-04-27T19:01:40.538Z,3.37
2019-04-27T19:04:12.416Z,3.30
2019-04-27T19:06:44.300Z,5.37
2019-04-27T19:09:18.484Z,10.27
2019-04-27T19:11:56.194Z,6.47
2019-04-27T19:14:23.977Z,3.70
2019-04-27T19:16:55.710Z,2.93
2019-04-27T19:19:28.012Z,3.40
2019-04-27T19:22:00.210Z,5.43
2019-04-27T19:24:31.937Z,6.30
2019-04-27T19:27:18.045Z,8.57
2019-04-27T19:29:49.320Z,3.00
2019-04-27T19:32:21.162Z,6.70
2019-04-27T19:34:52.985Z,6.20
2019-04-27T19:37:24.878Z,4.37
2019-04-27T19:39:58.253Z,6.30
2019-04-27T19:42:30.189Z,7.37
2019-04-27T19:45:02.251Z,5.83
2019-04-27T19:47:34.133Z,3.70
2019-04-27T19:50:06.101Z,4.93
2019-04-27T19:52:38.908Z,6.00
2019-04-27T19:55:10.928Z,4.03
2019-04-27T19:57:42.894Z,3.73
2019-04-27T20:00:29.668Z,4.40
2019-04-27T20:03:02.442Z,8.60
2019-04-27T20:05:34.309Z,9.10
2019-04-27T20:08:09.742Z,4.67
2019-04-27T20:10:43.322Z,3.67
2019-04-27T20:13:15.416Z,7.93
2019-04-27T20:15:47.445Z,7.93
2019-04-27T20:18:20.907Z,3.80
2019-04-27T20:20:53.025Z,5.97
2019-04-27T20:23:25.015Z,4.13
2019-04-27T20:25:56.737Z,4.30
2019-04-27T20:28:28.482Z,3.37
2019-04-27T20:31:00.210Z,7.90
2019-04-27T20:33:32.042Z,6.73
2019-04-27T20:36:03.867Z,5.57
2019-04-27T20:38:35.783Z,3.77
2019-04-27T20:41:07.648Z,6.53
2019-04-27T20:43:39.578Z,9.97
2019-04-27T20:46:11.874Z,3.30
2019-04-27T20:48:43.845Z,4.40
2019-04-27T20:51:15.754Z,7.90
2019-04-27T20:53:51.643Z,5.87
2019-04-27T20:56:23.494Z,4.60
2019-04-27T20:58:55.229Z,5.57
2019-04-27T21:01:26.941Z,8.37
2019-04-27T21:04:00.906Z,6.73
2019-04-27T21:06:45.477Z,4.03
2019-04-27T21:09:17.964Z,2.93
2019-04-27T21:11:49.920Z,3.73
2019-04-27T21:14:21.859Z,11.90
2019-04-27T21:16:53.784Z,4.60
2019-04-27T21:19:25.662Z,5.90
2019-04-27T21:21:57.520Z,7.57
2019-04-27T21:24:31.084Z,7.93
2019-04-27T21:27:03.368Z,7.87
2019-04-27T21:29:35.440Z,5.70
2019-04-27T21:32:08.013Z,5.67
2019-04-27T21:34:41.350Z,5.93
2019-04-27T21:37:13.188Z,5.60
2019-04-27T21:39:44.919Z,4.53
2019-04-27T21:42:17.331Z,8.37
2019-04-27T21:44:50.941Z,11.30
2019-04-27T21:47:24.781Z,11.20
2019-04-27T21:49:57.797Z,7.60
2019-04-27T21:52:33.149Z,4.73
2019-04-27T21:55:05.156Z,4.67
2019-04-27T21:57:37.116Z,5.43
2019-04-27T22:00:24.930Z,4.50
2019-04-27T22:02:56.885Z,7.70
2019-04-27T22:05:28.761Z,8.93
2019-04-27T22:08:00.884Z,6.27
2019-04-27T22:10:34.506Z,3.67
2019-04-27T22:13:06.380Z,5.60
2019-04-27T22:15:38.256Z,3.73
2019-04-27T22:18:11.180Z,7.40
2019-04-27T22:20:43.210Z,4.83
2019-04-27T22:23:23.104Z,5.03
2019-04-27T22:25:55.120Z,5.63
2019-04-27T22:28:27.012Z,6.77
2019-04-27T22:30:58.985Z,3.97
2019-04-27T22:33:30.868Z,7.67
2019-04-27T22:36:02.876Z,5.33
2019-04-27T22:38:34.740Z,7.23
2019-04-27T22:41:14.951Z,5.23
2019-04-27T22:44:05.426Z,4.13
2019-04-27T22:46:38.063Z,5.27
2019-04-27T22:49:10.949Z,7.37
2019-04-27T22:51:43.239Z,4.23
2019-04-27T22:54:15.180Z,6.67
2019-04-27T22:56:47.478Z,4.17
2019-04-27T22:59:39.076Z,6.40
2019-04-27T23:02:21.746Z,3.83
2019-04-27T23:04:57.240Z,4.17
2019-04-27T23:07:29.117Z,4.47
2019-04-27T23:10:01.505Z,3.07
2019-04-27T23:12:33.861Z,2.97
2019-04-27T23:15:07.812Z,3.30
2019-04-27T23:18:05.078Z,4.53
2019-04-27T23:20:36.992Z,2.90
2019-04-27T23:23:08.869Z,5.83
2019-04-27T23:25:42.621Z,4.60
2019-04-27T23:28:14.511Z,6.17
2019-04-27T23:30:56.463Z,3.97
2019-04-27T23:33:28.345Z,4.47
2019-04-27T23:36:01.578Z,7.07
2019-04-27T23:38:33.640Z,3.27
2019-04-27T23:41:05.690Z,5.87
2019-04-27T23:43:37.558Z,6.57
2019-04-27T23:46:11.447Z,5.20
2019-04-27T23:48:43.193Z,7.73
2019-04-27T23:51:23.325Z,7.90
2019-04-27T23:53:55.196Z,8.07
2019-04-27T23:56:31.695Z,7.27
2019-04-27T23:59:04.677Z,5.70
